createdAt,value
2023-03-05T00:02:57.798Z,4.30
2023-03-05T00:08:04.952Z,3.90
2023-03-05T00:13:10.804Z,3.40
2023-03-05T00:18:17.002Z,4.50
2023-03-05T00:23:22.826Z,3.80
2023-03-05T00:28:28.642Z,3.20
2023-03-05T00:33:34.415Z,3.10
2023-03-05T00:38:40.767Z,3.10
2023-03-05T00:43:47.253Z,3.10
2023-03-05T00:48:53.291Z,3.80
2023-03-05T00:53:59.408Z,4.10
2023-03-05T00:59:06.266Z,3.90
2023-03-05T01:04:12.472Z,4.50
2023-03-05T01:09:19.527Z,5.00
2023-03-05T01:14:27.792Z,5.80
2023-03-05T01:19:33.663Z,5.80
2023-03-05T01:24:39.491Z,5.70
2023-03-05T01:29:45.796Z,6.10
2023-03-05T01:34:51.841Z,5.60
2023-03-05T01:39:57.612Z,5.20
2023-03-05T01:45:07.084Z,6.10
2023-03-05T01:50:16.141Z,6.50
2023-03-05T01:55:25.660Z,6.70
2023-03-05T02:00:35.867Z,6.80
2023-03-05T02:05:44.427Z,6.90
2023-03-05T02:10:53.023Z,7.50
2023-03-05T02:16:01.807Z,7.40
2023-03-05T02:21:08.753Z,7.60
2023-03-05T02:26:14.896Z,7.30
2023-03-05T02:31:23.282Z,8.50
2023-03-05T02:36:29.283Z,7.80
2023-03-05T02:41:35.383Z,7.80
2023-03-05T02:46:41.397Z,8.50
2023-03-05T02:51:47.262Z,8.20
2023-03-05T02:56:53.077Z,8.90
2023-03-05T03:02:01.083Z,8.20
2023-03-05T03:07:07.439Z,8.60
2023-03-05T03:12:13.408Z,8.20
2023-03-05T03:17:20.120Z,8.50
2023-03-05T03:22:26.066Z,7.60
2023-03-05T03:27:31.968Z,7.90
2023-03-05T03:32:37.869Z,8.60
2023-03-05T03:37:43.926Z,8.50
2023-03-05T03:42:51.139Z,8.00
2023-03-05T03:47:57.251Z,7.90
2023-03-05T03:53:03.863Z,9.00
2023-03-05T03:58:09.670Z,7.40
2023-03-05T04:03:15.566Z,6.70
2023-03-05T04:08:21.672Z,7.70
2023-03-05T04:13:27.581Z,7.40
2023-03-05T04:18:33.734Z,7.00
2023-03-05T04:23:39.764Z,7.60
2023-03-05T04:28:46.589Z,7.60
2023-03-05T04:33:52.421Z,7.50
2023-03-05T04:38:58.367Z,7.90
2023-03-05T04:44:05.238Z,7.20
2023-03-05T04:49:11.052Z,7.90
2023-03-05T04:54:17.057Z,8.60
2023-03-05T04:59:22.897Z,8.10
2023-03-05T05:04:28.841Z,7.60
2023-03-05T05:09:35.013Z,7.70
2023-03-05T05:14:40.781Z,8.10
2023-03-05T05:19:46.788Z,6.60
2023-03-05T05:24:52.524Z,6.40
2023-03-05T05:29:58.641Z,6.80
2023-03-05T05:35:05.515Z,6.50
2023-03-05T05:40:13.195Z,7.00
2023-03-05T05:45:19.472Z,6.80
2023-03-05T05:50:25.367Z,6.30
2023-03-05T05:55:31.332Z,6.60
2023-03-05T06:00:38.465Z,6.90
2023-03-05T06:05:44.894Z,5.80
2023-03-05T06:10:56.304Z,7.60
2023-03-05T06:16:03.854Z,6.90
2023-03-05T06:21:11.771Z,7.80
2023-03-05T06:26:20.156Z,7.50
2023-03-05T06:31:27.731Z,6.80
2023-03-05T06:36:33.904Z,7.10
2023-03-05T06:41:40.055Z,6.80
2023-03-05T06:46:45.856Z,6.40
2023-03-05T06:51:51.457Z,5.80
2023-03-05T06:56:57.326Z,5.40
2023-03-05T07:02:04.470Z,6.60
2023-03-05T07:07:10.188Z,6.50
2023-03-05T07:12:16.709Z,6.20
2023-03-05T07:17:22.640Z,5.90
2023-03-05T07:22:28.914Z,5.20
2023-03-05T07:27:38.473Z,5.90
2023-03-05T07:32:44.424Z,5.80
2023-03-05T07:37:50.531Z,5.60
2023-03-05T07:42:56.832Z,5.80
2023-03-05T07:48:08.553Z,6.00
2023-03-05T07:53:15.635Z,5.00
2023-03-05T07:58:22.065Z,5.40
2023-03-05T08:03:28.336Z,6.40
2023-03-05T08:08:34.405Z,5.20
2023-03-05T08:13:41.045Z,5.50
2023-03-05T08:18:47.694Z,7.00
2023-03-05T08:23:53.372Z,5.80
2023-03-05T08:28:59.825Z,6.40
2023-03-05T08:34:07.571Z,6.60
2023-03-05T08:39:13.492Z,7.20
2023-03-05T08:44:19.425Z,6.80
2023-03-05T08:49:25.582Z,6.90
2023-03-05T08:54:31.151Z,7.40
2023-03-05T08:59:36.947Z,7.70
2023-03-05T09:04:42.848Z,7.50
2023-03-05T09:09:48.733Z,7.60
2023-03-05T09:14:57.292Z,7.80
2023-03-05T09:20:04.200Z,7.80
2023-03-05T09:25:12.960Z,9.30
2023-03-05T09:30:19.707Z,9.40
2023-03-05T09:35:25.875Z,9.20
2023-03-05T09:40:42.230Z,9.50
2023-03-05T09:46:02.368Z,8.90
2023-03-05T09:51:16.820Z,9.50
2023-03-05T09:56:26.710Z,10.00
2023-03-05T10:01:39.679Z,9.00
2023-03-05T10:06:53.636Z,7.30
2023-03-05T10:12:03.572Z,8.70
2023-03-05T10:17:40.109Z,8.40
2023-03-05T10:23:04.249Z,6.50
2023-03-05T10:28:17.989Z,6.70
2023-03-05T10:33:35.089Z,6.60
2023-03-05T10:38:59.967Z,6.60
2023-03-05T10:44:15.833Z,6.20
2023-03-05T10:49:26.796Z,6.00
2023-03-05T10:54:35.982Z,6.00
2023-03-05T10:59:46.866Z,6.50
2023-03-05T11:04:54.504Z,7.00
2023-03-05T11:10:17.614Z,6.50
2023-03-05T11:15:30.481Z,8.50
2023-03-05T11:20:37.766Z,6.80
2023-03-05T11:26:01.975Z,7.50
2023-03-05T11:31:21.612Z,8.10
2023-03-05T11:36:30.999Z,9.90
2023-03-05T11:41:40.688Z,6.50
2023-03-05T11:46:51.009Z,6.40
2023-03-05T11:52:06.705Z,6.90
2023-03-05T11:57:16.861Z,6.90
2023-03-05T12:02:25.986Z,6.50
2023-03-05T12:07:37.565Z,6.40
2023-03-05T12:12:48.988Z,5.40
2023-03-05T12:18:07.143Z,5.20
2023-03-05T12:23:18.528Z,6.10
2023-03-05T12:28:57.604Z,7.30
2023-03-05T12:34:47.368Z,7.10
2023-03-05T12:40:01.203Z,6.70
2023-03-05T12:45:29.124Z,8.80
2023-03-05T12:50:59.334Z,11.20
2023-03-05T12:56:17.091Z,9.80
2023-03-05T13:01:36.064Z,8.20
2023-03-05T13:06:42.925Z,6.70
2023-03-05T13:11:55.365Z,6.90
2023-03-05T13:17:03.064Z,7.10
2023-03-05T13:22:13.364Z,7.10
2023-03-05T13:27:29.469Z,7.70
2023-03-05T13:32:35.914Z,7.30
2023-03-05T13:37:43.837Z,6.70
2023-03-05T13:42:53.225Z,8.80
2023-03-05T13:48:01.247Z,7.30
2023-03-05T13:53:21.088Z,8.10
2023-03-05T13:58:49.583Z,6.70
2023-03-05T14:03:58.006Z,5.50
2023-03-05T14:09:18.761Z,6.00
2023-03-05T14:14:26.370Z,5.70
2023-03-05T14:19:38.408Z,5.80
2023-03-05T14:24:53.155Z,7.10
2023-03-05T14:29:59.609Z,7.10
2023-03-05T14:35:07.489Z,8.20
2023-03-05T14:40:26.291Z,7.80
2023-03-05T14:45:33.518Z,8.00
2023-03-05T14:50:43.196Z,6.70
2023-03-05T14:55:56.057Z,6.60
2023-03-05T15:01:03.490Z,6.20
2023-03-05T15:06:16.121Z,5.60
2023-03-05T15:11:23.235Z,5.90
2023-03-05T15:16:30.500Z,5.40
2023-03-05T15:21:37.917Z,5.00
2023-03-05T15:26:43.819Z,5.50
2023-03-05T15:31:52.730Z,6.00
2023-03-05T15:36:58.557Z,5.90
2023-03-05T15:42:06.396Z,5.90
2023-03-05T15:47:12.512Z,6.20
2023-03-05T15:52:18.165Z,5.40
2023-03-05T15:57:24.403Z,5.80
2023-03-05T16:02:30.118Z,5.70
2023-03-05T16:07:39.829Z,6.40
2023-03-05T16:12:48.441Z,6.50
2023-03-05T16:17:56.574Z,6.70
2023-03-05T16:23:04.145Z,6.50
2023-03-05T16:28:10.942Z,6.20
2023-03-05T16:33:16.762Z,7.00
2023-03-05T16:38:22.622Z,6.50
2023-03-05T16:43:28.811Z,7.00
2023-03-05T16:48:35.858Z,7.00
2023-03-05T16:53:42.526Z,6.80
2023-03-05T16:58:50.494Z,7.10
2023-03-05T17:03:59.689Z,7.10
2023-03-05T17:09:05.724Z,8.70
2023-03-05T17:14:11.540Z,7.80
2023-03-05T17:19:17.696Z,7.70
2023-03-05T17:24:23.571Z,10.40
2023-03-05T17:29:29.573Z,9.20
2023-03-05T17:34:36.943Z,9.90
2023-03-05T17:39:43.000Z,10.10
2023-03-05T17:44:50.300Z,23.80
2023-03-05T17:49:56.717Z,29.10
2023-03-05T17:55:02.830Z,18.60
2023-03-05T18:00:15.182Z,16.60
2023-03-05T18:05:23.565Z,16.20
2023-03-05T18:10:31.165Z,19.10
2023-03-05T18:15:40.519Z,18.90
2023-03-05T18:20:48.713Z,19.30
2023-03-05T18:25:54.755Z,15.70
2023-03-05T18:31:01.111Z,14.10
2023-03-05T18:36:10.785Z,16.00
2023-03-05T18:41:22.422Z,91.90
2023-03-05T18:46:28.575Z,35.30
2023-03-05T18:51:36.343Z,18.70
2023-03-05T18:56:42.464Z,19.60
2023-03-05T19:01:48.598Z,25.30
2023-03-05T19:06:55.185Z,15.90
2023-03-05T19:12:01.143Z,19.00
2023-03-05T19:17:06.780Z,14.00
2023-03-05T19:22:12.933Z,20.30
2023-03-05T19:27:18.881Z,20.20
2023-03-05T19:32:25.098Z,19.30
2023-03-05T19:37:32.276Z,20.00
2023-03-05T19:42:39.093Z,16.40
2023-03-05T19:47:45.256Z,15.40
2023-03-05T19:52:51.255Z,18.10
2023-03-05T19:57:57.385Z,16.20
2023-03-05T20:03:03.713Z,17.70
2023-03-05T20:08:09.741Z,19.20
2023-03-05T20:13:15.518Z,19.50
2023-03-05T20:18:21.922Z,18.40
2023-03-05T20:23:31.350Z,18.50
2023-03-05T20:28:37.111Z,17.60
2023-03-05T20:33:42.972Z,19.10
2023-03-05T20:38:49.085Z,24.20
2023-03-05T20:43:55.775Z,23.00
2023-03-05T20:49:03.814Z,19.50
2023-03-05T20:54:12.227Z,19.80
2023-03-05T20:59:18.070Z,20.80
2023-03-05T21:04:23.749Z,22.40
2023-03-05T21:09:29.588Z,23.10
2023-03-05T21:14:38.140Z,22.90
2023-03-05T21:19:44.104Z,22.90
2023-03-05T21:25:20.937Z,21.20
2023-03-05T21:30:31.947Z,21.60
2023-03-05T21:35:38.923Z,19.60
2023-03-05T21:40:48.635Z,21.20
2023-03-05T21:45:57.229Z,21.50
2023-03-05T21:51:38.342Z,22.20
2023-03-05T21:56:54.503Z,21.50
2023-03-05T22:02:00.733Z,19.50
2023-03-05T22:07:07.140Z,18.70
2023-03-05T22:13:05.854Z,19.20
2023-03-05T22:18:12.087Z,20.90
2023-03-05T22:23:19.698Z,21.80
2023-03-05T22:28:26.228Z,21.20
2023-03-05T22:33:32.613Z,20.30
2023-03-05T22:38:38.658Z,21.50
2023-03-05T22:43:44.656Z,20.50
2023-03-05T22:48:52.719Z,18.70
2023-03-05T22:53:58.642Z,19.10
2023-03-05T22:59:04.680Z,19.30
2023-03-05T23:04:57.631Z,20.40
2023-03-05T23:10:07.201Z,20.50
2023-03-05T23:15:16.484Z,20.20
2023-03-05T23:20:24.205Z,21.70
2023-03-05T23:25:32.881Z,21.70
2023-03-05T23:30:39.495Z,20.80
2023-03-05T23:35:52.852Z,20.40
2023-03-05T23:41:01.399Z,20.40
2023-03-05T23:46:11.996Z,21.50
2023-03-05T23:51:18.130Z,22.40
2023-03-05T23:56:24.186Z,24.00
